Time;durP1;ratioP1;P1;durP2;ratioP2;P2;SDS_P1;SDS_P2;PMS_P1;PMS_P2;Temp;Humidity;BMP_temperature;BMP_pressure;BME280_temperature;BME280_humidity;BME280_pressure;Samples;Min_cycle;Max_cycle;Signal;HPM_P1;HPM_P2
2022/01/13 00:03:09;;;;;;;91.00;48.22;;;;;;;0.70;90.86;103984.13;10375190;28;19917;-78
2022/01/13 00:08:09;;;;;;;80.93;43.97;;;;;;;0.63;90.56;103981.44;10375435;28;20109;-78
2022/01/13 00:13:13;;;;;;;76.63;42.88;;;;;;;0.62;91.16;103981.19;10375171;28;20426;-78
2022/01/13 00:18:37;;;;;;;84.65;42.63;;;;;;;0.67;91.02;103981.13;10374580;28;20489;-78
2022/01/13 00:28:38;;;;;;;84.30;47.10;;;;;;;0.64;90.32;103985.88;10374176;28;20030;-79
2022/01/13 00:33:46;;;;;;;74.38;40.38;;;;;;;0.63;90.51;103983.06;10375732;28;20180;-79
2022/01/13 00:38:46;;;;;;;91.00;44.17;;;;;;;0.60;90.90;103991.31;10373507;28;20082;-78
2022/01/13 00:43:47;;;;;;;87.68;42.97;;;;;;;0.62;90.62;103991.50;10373996;28;20034;-78
2022/01/13 00:48:49;;;;;;;89.37;44.33;;;;;;;0.62;90.94;103996.66;10374530;28;20153;-78
2022/01/13 00:53:49;;;;;;;88.63;49.50;;;;;;;0.61;90.80;103999.97;10371813;28;20068;-79
2022/01/13 00:58:50;;;;;;;89.47;42.97;;;;;;;0.65;90.76;103989.34;10373201;28;20088;-78
2022/01/13 01:03:50;;;;;;;101.78;45.67;;;;;;;0.65;91.01;103997.09;10372302;28;20157;-78
2022/01/13 01:08:51;;;;;;;86.97;43.67;;;;;;;0.71;90.70;103992.78;10373248;28;20176;-78
2022/01/13 01:13:52;;;;;;;83.30;42.85;;;;;;;0.67;90.57;103988.88;10354718;28;20084;-79
2022/01/13 01:19:00;;;;;;;88.07;45.55;;;;;;;0.68;91.01;104000.09;10371218;28;20105;-78
2022/01/13 01:39:18;;;;;;;95.25;47.60;;;;;;;0.59;91.23;103986.88;10370185;28;20042;-78
2022/01/13 01:44:29;;;;;;;105.82;53.80;;;;;;;0.56;91.55;103973.56;10373693;28;20026;-78
2022/01/13 01:49:37;;;;;;;106.63;51.17;;;;;;;0.56;91.29;103981.28;10355585;28;20026;-78
2022/01/13 01:54:38;;;;;;;98.13;52.22;;;;;;;0.57;90.95;103996.03;10371031;28;20033;-78
2022/01/13 01:59:41;;;;;;;103.00;55.88;;;;;;;0.52;91.33;104005.69;10354346;28;20069;-78
2022/01/13 02:04:42;;;;;;;100.82;49.00;;;;;;;0.48;91.22;104020.53;10356256;28;20485;-78
2022/01/13 02:09:48;;;;;;;117.65;52.15;;;;;;;0.47;91.37;104008.38;10369707;28;20452;-78
2022/01/13 02:14:58;;;;;;;112.00;52.50;;;;;;;0.51;91.62;104010.66;10370187;28;20168;-78
2022/01/13 02:19:59;;;;;;;99.47;51.17;;;;;;;0.51;91.29;103990.03;10372151;28;20484;-78
2022/01/13 02:25:00;;;;;;;100.70;54.10;;;;;;;0.44;90.94;104006.28;10367176;28;20057;-77
2022/01/13 02:30:00;;;;;;;115.15;54.67;;;;;;;0.38;91.46;104001.22;10326121;28;20079;-77
2022/01/13 02:35:01;;;;;;;109.05;52.28;;;;;;;0.37;91.70;104001.00;10350970;28;20061;-78
2022/01/13 02:40:01;;;;;;;101.28;50.05;;;;;;;0.41;91.23;104004.22;10366997;28;20525;-77
2022/01/13 02:45:15;;;;;;;106.95;47.20;;;;;;;0.42;91.09;103998.34;10368386;28;20042;-78
2022/01/13 02:50:18;;;;;;;97.32;52.85;;;;;;;0.41;91.09;103999.06;10370262;28;20069;-77
2022/01/13 02:55:19;;;;;;;90.57;53.38;;;;;;;0.39;91.23;104005.66;10353360;28;20061;-78
2022/01/13 03:00:19;;;;;;;92.45;46.08;;;;;;;0.39;91.21;104009.88;10369470;28;20052;-77
2022/01/13 03:05:25;;;;;;;107.45;49.92;;;;;;;0.44;91.04;104003.72;10369687;28;20056;-78
2022/01/13 03:10:26;;;;;;;95.00;51.25;;;;;;;0.40;90.80;103996.25;10351344;28;20496;-80
2022/01/13 03:15:26;;;;;;;96.20;49.55;;;;;;;0.37;90.79;103985.53;10367352;28;20135;-79
2022/01/13 03:20:27;;;;;;;105.20;52.25;;;;;;;0.35;91.05;103982.75;10368286;28;20120;-80
2022/01/13 03:25:27;;;;;;;118.78;48.05;;;;;;;0.33;90.87;103978.09;10369217;28;20041;-81
2022/01/13 03:30:28;;;;;;;95.63;49.55;;;;;;;0.31;90.91;103976.94;10368423;28;20120;-79
2022/01/13 03:35:28;;;;;;;93.43;46.08;;;;;;;0.23;90.99;103986.19;10368208;28;20116;-79
2022/01/13 03:40:33;;;;;;;72.00;40.10;;;;;;;0.22;90.67;103992.06;10369763;28;20121;-79
2022/01/13 03:45:34;;;;;;;84.68;47.83;;;;;;;0.17;91.08;103977.63;10375584;28;20041;-79
2022/01/13 03:50:35;;;;;;;91.70;46.25;;;;;;;0.11;91.31;103985.41;10376945;28;20048;-79
2022/01/13 03:55:36;;;;;;;82.10;47.07;;;;;;;0.13;91.20;103977.19;10358922;28;20030;-80
2022/01/13 04:01:12;;;;;;;88.25;44.55;;;;;;;0.12;91.34;103984.69;10375863;28;20034;-80
2022/01/13 04:06:16;;;;;;;110.50;49.38;;;;;;;0.08;91.58;103966.94;10360544;28;20040;-79
2022/01/13 04:11:32;;;;;;;91.18;51.03;;;;;;;0.13;91.51;103978.81;10378228;28;20371;-79
2022/01/13 04:16:34;;;;;;;80.65;44.53;;;;;;;0.10;91.83;103969.03;10359660;28;20038;-79
2022/01/13 04:21:35;;;;;;;88.80;48.08;;;;;;;0.08;91.45;103980.78;10357341;28;20080;-80
2022/01/13 04:26:36;;;;;;;96.35;50.00;;;;;;;0.13;91.30;103979.75;10375114;28;20034;-82
2022/01/13 04:31:40;;;;;;;77.30;44.45;;;;;;;0.04;90.82;103975.91;10373830;28;20029;-81
2022/01/13 04:36:41;;;;;;;87.40;48.28;;;;;;;0.01;91.17;103979.69;10373346;28;20473;-79
2022/01/13 04:41:44;;;;;;;85.65;46.67;;;;;;;-0.01;91.90;103992.34;10373587;28;20073;-77
2022/01/13 04:46:45;;;;;;;88.72;50.30;;;;;;;-0.04;91.68;103981.63;10359797;28;20543;-79
2022/01/13 04:51:47;;;;;;;105.75;54.03;;;;;;;0.01;91.64;103970.31;10370448;28;20022;-80
2022/01/13 05:01:51;;;;;;;103.15;50.28;;;;;;;-0.02;91.20;103967.31;10358162;28;20049;-78
2022/01/13 05:06:51;;;;;;;99.43;51.47;;;;;;;-0.06;91.30;103967.59;10373027;28;20537;-78
2022/01/13 05:11:52;;;;;;;111.00;57.05;;;;;;;-0.16;91.62;103975.66;10373561;28;20034;-78
2022/01/13 05:17:06;;;;;;;110.32;50.97;;;;;;;-0.11;91.46;103960.88;10372645;28;20062;-79
2022/01/13 05:27:13;;;;;;;97.00;49.78;;;;;;;-0.30;92.07;103954.03;10350160;28;20429;-79
2022/01/13 05:32:14;;;;;;;102.88;53.35;;;;;;;-0.34;92.21;103949.19;10371495;28;20109;-79
2022/01/13 05:37:14;;;;;;;110.53;54.10;;;;;;;-0.37;92.39;103946.16;10372014;28;20069;-79
2022/01/13 05:42:15;;;;;;;106.03;54.75;;;;;;;-0.33;92.10;103940.75;10370675;28;20073;-78
2022/01/13 05:47:15;;;;;;;115.43;58.22;;;;;;;-0.28;92.03;103938.84;10370048;28;20500;-78
2022/01/13 05:52:16;;;;;;;119.10;59.55;;;;;;;-0.33;91.82;103934.69;10329765;28;20042;-78
2022/01/13 05:57:16;;;;;;;106.20;54.85;;;;;;;-0.40;92.24;103926.81;10367885;28;20087;-78
2022/01/13 06:02:17;;;;;;;116.45;56.20;;;;;;;-0.47;91.92;103937.88;10369977;28;20078;-78
2022/01/13 06:07:17;;;;;;;113.57;60.03;;;;;;;-0.54;92.51;103955.72;10368729;28;20057;-77
2022/01/13 06:12:20;;;;;;;116.88;59.03;;;;;;;-0.53;92.67;103950.81;10333414;28;20469;-80
2022/01/13 06:17:20;;;;;;;129.18;63.88;;;;;;;-0.60;92.84;103943.84;10368532;28;20038;-77
2022/01/13 06:22:24;;;;;;;121.57;59.08;;;;;;;-0.60;92.44;103948.06;10369214;28;20034;-78
2022/01/13 06:27:24;;;;;;;129.55;59.90;;;;;;;-0.62;93.24;103944.34;10371013;28;20448;-77
2022/01/13 06:32:25;;;;;;;119.65;63.75;;;;;;;-0.66;93.13;103944.63;10372314;28;20030;-78
2022/01/13 06:37:25;;;;;;;135.27;63.38;;;;;;;-0.67;92.65;103946.25;10368755;28;20065;-77
2022/01/13 06:42:26;;;;;;;139.60;62.95;;;;;;;-0.70;92.63;103932.03;10368207;28;20096;-78
2022/01/13 06:47:26;;;;;;;145.18;63.08;;;;;;;-0.73;92.77;103934.19;10355392;28;20073;-78
2022/01/13 06:52:27;;;;;;;129.73;61.20;;;;;;;-0.78;92.88;103937.03;10370602;28;20057;-78
2022/01/13 06:57:30;;;;;;;153.38;66.05;;;;;;;-0.81;93.03;103940.78;10367622;28;20492;-78
2022/01/13 07:02:31;;;;;;;147.50;65.05;;;;;;;-0.78;92.89;103957.59;10366690;28;20026;-77
2022/01/13 07:07:34;;;;;;;139.77;60.42;;;;;;;-0.77;93.04;103950.78;10381718;28;20026;-77
2022/01/13 07:12:34;;;;;;;132.63;59.97;;;;;;;-0.83;93.54;103961.16;10371830;28;20080;-76
2022/01/13 07:17:35;;;;;;;145.20;63.00;;;;;;;-0.81;92.97;103966.50;10375856;28;20123;-77
2022/01/13 07:22:39;;;;;;;150.40;65.88;;;;;;;-0.81;92.91;103962.31;10385413;28;20043;-77
2022/01/13 07:27:40;;;;;;;168.38;65.20;;;;;;;-0.82;92.96;103963.00;10404852;28;20026;-76
2022/01/13 07:32:41;;;;;;;145.60;67.43;;;;;;;-0.87;93.64;103970.75;10376886;28;20436;-77
2022/01/13 07:37:42;;;;;;;160.27;63.03;;;;;;;-0.83;93.65;103966.28;10370415;28;20090;-78
2022/01/13 07:42:46;;;;;;;151.38;69.88;;;;;;;-0.73;93.76;103965.97;10370127;28;20057;-77
2022/01/13 07:47:47;;;;;;;166.55;70.97;;;;;;;-0.74;93.24;103969.25;10375561;28;20401;-78
2022/01/13 07:52:47;;;;;;;185.50;74.07;;;;;;;-0.78;93.42;103967.88;10374025;28;20029;-78
2022/01/13 07:57:48;;;;;;;166.57;68.15;;;;;;;-0.82;93.22;103965.59;10385618;28;20532;-77
2022/01/13 08:02:48;;;;;;;176.68;66.85;;;;;;;-0.71;93.34;103976.47;10377334;28;20060;-77
2022/01/13 08:07:49;;;;;;;147.70;59.83;;;;;;;-0.77;92.92;103984.22;10360992;28;20461;-78
2022/01/13 08:12:49;;;;;;;168.88;67.28;;;;;;;-0.79;93.33;103976.31;10364537;28;20780;-78
2022/01/13 08:23:09;;;;;;;153.55;65.20;;;;;;;-0.69;93.93;103981.13;10366829;28;20448;-77
2022/01/13 08:28:11;;;;;;;138.02;59.50;;;;;;;-0.67;93.83;103986.50;10367363;28;20070;-78
2022/01/13 08:33:12;;;;;;;138.23;61.67;;;;;;;-0.62;94.19;103994.16;10352555;28;20516;-78
2022/01/13 08:38:23;;;;;;;147.20;63.25;;;;;;;-0.55;93.02;103990.81;10383666;28;20172;-78
2022/01/13 08:43:25;;;;;;;134.27;59.88;;;;;;;-0.60;92.95;103996.97;10365009;28;20030;-77
2022/01/13 08:48:25;;;;;;;185.47;72.47;;;;;;;-0.60;93.23;104003.03;10356119;28;20030;-78
2022/01/13 08:53:26;;;;;;;141.35;56.45;;;;;;;-0.57;92.80;104007.69;10375884;28;20038;-78
2022/01/13 08:58:26;;;;;;;172.07;59.40;;;;;;;-0.61;93.24;104019.16;10371974;28;20037;-78
2022/01/13 09:03:27;;;;;;;137.20;60.45;;;;;;;-0.51;93.43;104020.47;10378403;28;20033;-77
2022/01/13 09:08:27;;;;;;;137.70;62.33;;;;;;;-0.40;93.42;104028.09;10374149;28;20069;-79
2022/01/13 09:13:33;;;;;;;225.50;101.25;;;;;;;-0.38;92.88;104026.66;10369632;28;20022;-77
2022/01/13 09:18:49;;;;;;;161.18;63.25;;;;;;;-0.41;92.64;104023.66;10375015;28;20033;-77
2022/01/13 09:23:49;;;;;;;145.02;61.17;;;;;;;-0.32;93.03;104030.13;10373662;28;20124;-77
2022/01/13 09:28:50;;;;;;;111.55;54.97;;;;;;;-0.25;92.68;104026.78;10374427;28;20553;-77
2022/01/13 09:33:50;;;;;;;124.90;59.20;;;;;;;-0.18;92.67;104028.56;10372147;28;20121;-78
2022/01/13 09:38:51;;;;;;;139.60;55.72;;;;;;;-0.12;91.84;104032.03;10372785;28;20085;-78
2022/01/13 09:43:51;;;;;;;119.13;49.42;;;;;;;-0.16;92.41;104029.72;10369186;28;20072;-80
2022/01/13 09:48:52;;;;;;;115.32;53.88;;;;;;;-0.10;92.25;104015.16;10357959;28;20038;-81
2022/01/13 09:53:53;;;;;;;104.88;55.45;;;;;;;-0.05;91.74;104024.44;10340458;28;20124;-81
2022/01/13 09:58:54;;;;;;;119.50;63.22;;;;;;;0.03;92.29;104028.13;10373503;28;20053;-79
2022/01/13 10:03:54;;;;;;;105.57;53.63;;;;;;;0.14;92.13;104024.47;10339954;28;20670;-77
2022/01/13 10:08:56;;;;;;;121.03;55.50;;;;;;;0.18;91.90;104025.84;10369635;28;20489;-78
2022/01/13 10:19:36;;;;;;;100.38;53.92;;;;;;;0.38;91.62;104021.84;10364380;28;19928;-77
2022/01/13 10:24:38;;;;;;;92.22;42.95;;;;;;;0.38;90.71;104032.16;10381585;28;20037;-78
2022/01/13 10:29:47;;;;;;;96.82;44.33;;;;;;;0.33;90.63;104027.06;10370402;28;20015;-77
2022/01/13 10:34:49;;;;;;;90.55;49.30;;;;;;;0.35;91.18;104018.84;10389534;28;20108;-78
2022/01/13 10:39:52;;;;;;;105.53;54.83;;;;;;;0.44;90.75;104014.00;10367133;28;20104;-78
2022/01/13 10:44:57;;;;;;;89.43;46.13;;;;;;;0.53;90.88;104016.97;10364544;28;20064;-77
2022/01/13 10:49:59;;;;;;;97.32;47.17;;;;;;;0.65;90.87;104004.81;10377249;28;20018;-77
2022/01/13 10:55:14;;;;;;;101.05;47.40;;;;;;;0.66;90.74;104006.69;10403166;28;20041;-78
2022/01/13 11:00:18;;;;;;;86.20;39.45;;;;;;;0.73;89.54;103996.50;10319681;28;20062;-78
2022/01/13 11:05:18;;;;;;;104.53;43.58;;;;;;;0.71;89.45;103987.63;10366388;28;20039;-78
2022/01/13 11:10:21;;;;;;;96.18;41.95;;;;;;;0.69;89.88;103992.59;10340152;28;20109;-78
2022/01/13 11:15:25;;;;;;;99.63;47.25;;;;;;;0.88;89.34;103974.47;10348207;28;20041;-78
2022/01/13 11:20:26;;;;;;;82.90;40.63;;;;;;;0.75;89.30;103982.16;10363281;28;20035;-78
2022/01/13 11:25:27;;;;;;;90.90;41.63;;;;;;;0.80;89.18;103975.09;10379307;28;20034;-79
2022/01/13 11:30:31;;;;;;;91.47;42.40;;;;;;;0.85;89.39;103979.22;10359895;28;20030;-77
2022/01/13 11:35:35;;;;;;;98.40;45.53;;;;;;;0.71;89.05;103970.53;10405393;28;20099;-79
2022/01/13 11:40:41;;;;;;;93.20;44.83;;;;;;;0.70;89.75;103962.56;10374800;28;20444;-79
2022/01/13 11:45:47;;;;;;;90.70;45.72;;;;;;;0.77;90.35;103960.09;10355815;28;20038;-78
2022/01/13 11:50:53;;;;;;;87.93;42.03;;;;;;;0.81;90.45;103961.47;10372309;28;20068;-80
2022/01/13 11:56:04;;;;;;;85.43;41.17;;;;;;;1.00;90.13;103954.56;10390052;28;20057;-81
2022/01/13 12:01:32;;;;;;;76.68;40.58;;;;;;;1.08;89.50;103948.81;10379695;28;20065;-78
2022/01/13 12:06:44;;;;;;;84.35;39.50;;;;;;;1.12;90.12;103938.19;10374565;28;20034;-79
2022/01/13 12:11:54;;;;;;;78.13;37.23;;;;;;;1.18;89.94;103925.19;10330156;28;20065;-80
2022/01/13 12:17:19;;;;;;;79.25;40.97;;;;;;;1.26;89.91;103923.63;10358977;28;20037;-78
2022/01/13 12:22:25;;;;;;;93.22;43.17;;;;;;;1.25;89.79;103932.09;10355923;28;20045;-79
2022/01/13 12:27:39;;;;;;;89.13;46.67;;;;;;;1.22;89.65;103922.31;10373413;28;20030;-79
2022/01/13 12:32:50;;;;;;;79.15;39.33;;;;;;;1.22;89.58;103921.38;10375677;28;20041;-80
2022/01/13 12:38:18;;;;;;;81.82;36.55;;;;;;;1.17;89.98;103907.84;10355317;28;20026;-79
2022/01/13 12:48:46;;;;;;;86.03;43.00;;;;;;;1.31;89.50;103901.94;10385371;28;20120;-80
2022/01/13 12:53:50;;;;;;;84.43;43.33;;;;;;;1.33;90.13;103891.84;10365608;28;20034;-81
2022/01/13 12:58:55;;;;;;;89.68;43.72;;;;;;;1.33;89.21;103895.34;10402033;28;20049;-82
2022/01/13 13:04:06;;;;;;;84.95;44.15;;;;;;;1.23;89.40;103882.88;10331576;28;20030;-82
2022/01/13 13:09:08;;;;;;;95.90;39.70;;;;;;;1.29;90.43;103873.38;10360899;28;20026;-81
2022/01/13 13:14:16;;;;;;;98.00;40.67;;;;;;;1.22;90.20;103875.88;10338071;28;20034;-82
2022/01/13 13:19:17;;;;;;;99.25;39.53;;;;;;;1.21;90.77;103873.06;10354719;28;20042;-79
2022/01/13 13:24:19;;;;;;;76.55;36.17;;;;;;;1.21;90.80;103876.59;10362252;28;20128;-79
2022/01/13 13:29:26;;;;;;;80.13;37.25;;;;;;;1.19;90.72;103872.88;10370505;28;20166;-80
2022/01/13 13:34:30;;;;;;;96.38;46.10;;;;;;;1.23;91.40;103864.81;10373566;28;20103;-78
2022/01/13 13:39:41;;;;;;;99.32;39.67;;;;;;;1.38;91.60;103865.91;10535874;27;20393;-78
2022/01/13 13:44:42;;;;;;;86.45;38.65;;;;;;;1.46;91.54;103865.28;10537600;28;20111;-79
2022/01/13 13:49:47;;;;;;;73.70;39.95;;;;;;;1.42;91.26;103855.28;10544593;28;20498;-80
2022/01/13 13:54:54;;;;;;;91.82;40.17;;;;;;;1.50;91.59;103857.94;10512932;28;20024;-81
2022/01/13 13:59:55;;;;;;;81.80;35.50;;;;;;;1.49;90.94;103849.28;10504328;28;20367;-81
2022/01/13 14:04:57;;;;;;;101.60;41.08;;;;;;;1.54;91.25;103853.41;10491676;28;20120;-81
2022/01/13 14:09:58;;;;;;;89.45;37.92;;;;;;;1.49;91.24;103856.09;10489452;28;20021;-81
2022/01/13 14:15:21;;;;;;;77.90;38.88;;;;;;;1.34;91.09;103848.16;10526338;28;20035;-81
2022/01/13 14:20:26;;;;;;;80.57;36.47;;;;;;;1.27;91.08;103832.59;10511801;28;20032;-81
2022/01/13 14:25:30;;;;;;;83.63;42.75;;;;;;;1.21;91.65;103824.97;10511676;28;20034;-81
2022/01/13 14:30:42;;;;;;;108.90;48.28;;;;;;;1.25;91.90;103832.41;10511920;28;20044;-81
2022/01/13 14:35:43;;;;;;;115.90;45.80;;;;;;;1.24;91.63;103825.38;10505306;28;20047;-81
2022/01/13 14:40:47;;;;;;;103.40;49.80;;;;;;;1.20;91.87;103823.13;10503412;28;20036;-81
2022/01/13 14:46:06;;;;;;;104.78;48.17;;;;;;;1.22;92.06;103816.50;10529844;28;20119;-81
2022/01/13 14:51:08;;;;;;;100.60;44.67;;;;;;;1.22;91.87;103813.00;10466851;28;20025;-81
2022/01/13 14:56:10;;;;;;;122.30;44.38;;;;;;;1.21;91.91;103822.41;10501030;28;20027;-81
2022/01/13 15:01:12;;;;;;;111.72;42.22;;;;;;;1.10;92.16;103815.78;10498262;28;20024;-81
2022/01/13 15:06:13;;;;;;;133.32;47.15;;;;;;;1.05;92.71;103819.41;10499876;28;20426;-81
2022/01/13 15:11:15;;;;;;;94.13;37.70;;;;;;;0.93;92.65;103812.59;10481958;28;20119;-81
2022/01/13 15:16:15;;;;;;;72.50;36.05;;;;;;;0.85;92.40;103814.19;10482101;28;20492;-81
2022/01/13 15:21:16;;;;;;;106.93;41.40;;;;;;;0.83;93.04;103807.88;10482319;28;20074;-81
2022/01/13 15:26:17;;;;;;;134.68;46.13;;;;;;;0.81;92.77;103805.09;10481856;28;20079;-81
2022/01/13 15:31:17;;;;;;;110.57;45.63;;;;;;;0.82;93.13;103806.03;10481141;28;20116;-81
2022/01/13 15:36:19;;;;;;;165.98;45.05;;;;;;;0.82;93.42;103813.75;10514782;28;20545;-81
2022/01/13 15:41:20;;;;;;;145.13;42.88;;;;;;;0.68;93.29;103809.31;10482632;28;20028;-81
2022/01/13 15:46:21;;;;;;;90.38;36.20;;;;;;;0.60;93.08;103805.72;10490363;28;20498;-81
2022/01/13 15:51:21;;;;;;;89.55;41.15;;;;;;;0.60;93.39;103804.78;10480192;28;20099;-80
2022/01/13 15:56:22;;;;;;;136.90;44.50;;;;;;;0.60;93.87;103810.88;10498884;28;20497;-81
2022/01/13 16:01:22;;;;;;;180.10;46.50;;;;;;;0.52;93.70;103811.47;10494385;28;20074;-81
2022/01/13 16:06:23;;;;;;;176.20;47.45;;;;;;;0.48;93.78;103811.78;10480124;28;20067;-81
2022/01/13 16:11:23;;;;;;;102.78;39.08;;;;;;;0.45;94.14;103814.84;10497529;28;20029;-81
2022/01/13 16:16:24;;;;;;;131.27;42.20;;;;;;;0.36;94.06;103811.97;10508299;28;20083;-82
2022/01/13 16:21:26;;;;;;;162.80;46.72;;;;;;;0.38;94.24;103809.59;10495432;28;20044;-81
2022/01/13 16:26:26;;;;;;;111.68;38.85;;;;;;;0.35;93.99;103801.44;10494077;28;20031;-82
2022/01/13 16:31:27;;;;;;;107.57;44.22;;;;;;;0.30;94.43;103803.41;10495643;28;20117;-80
2022/01/13 16:36:27;;;;;;;62.67;34.78;;;;;;;0.28;93.84;103803.19;10494612;28;20653;-80
2022/01/13 16:41:28;;;;;;;251.90;53.45;;;;;;;0.25;94.35;103801.84;10475974;28;20119;-79
2022/01/13 16:46:28;;;;;;;206.15;46.60;;;;;;;0.21;94.61;103797.00;10464574;28;20062;-78
2022/01/13 16:51:29;;;;;;;224.23;48.53;;;;;;;0.13;94.40;103807.19;10521060;28;20019;-78
2022/01/13 16:56:30;;;;;;;217.52;51.53;;;;;;;0.11;94.15;103806.03;10501610;28;20036;-77
2022/01/13 17:01:30;;;;;;;220.38;47.38;;;;;;;0.08;94.95;103808.19;10474892;28;20422;-78
2022/01/13 17:06:31;;;;;;;216.73;49.63;;;;;;;0.11;94.60;103813.78;10496090;28;20016;-78
2022/01/13 17:11:32;;;;;;;187.73;48.58;;;;;;;0.07;94.80;103818.28;10537954;28;20103;-77
2022/01/13 17:16:35;;;;;;;186.98;46.03;;;;;;;0.18;94.50;103823.25;10504126;28;20032;-78
2022/01/13 17:21:36;;;;;;;126.50;45.28;;;;;;;0.13;94.69;103814.91;10506519;28;20020;-78
2022/01/13 17:26:37;;;;;;;122.43;40.45;;;;;;;0.13;94.50;103809.75;10483777;28;20033;-78
2022/01/13 17:31:37;;;;;;;282.98;55.28;;;;;;;0.13;94.41;103796.88;10490761;28;20091;-79
2022/01/13 17:36:38;;;;;;;133.85;44.28;;;;;;;0.16;95.01;103787.72;10492705;28;20171;-78
2022/01/13 17:41:38;;;;;;;169.82;50.25;;;;;;;0.15;94.59;103786.78;10476161;28;20025;-78
2022/01/13 17:46:39;;;;;;;112.30;40.38;;;;;;;0.13;94.57;103777.91;10491319;28;20024;-78
2022/01/13 17:51:40;;;;;;;221.60;50.97;;;;;;;0.12;94.82;103776.03;10489891;28;20055;-77
2022/01/13 17:56:41;;;;;;;181.25;46.63;;;;;;;0.12;94.80;103792.44;10477853;28;20701;-78
2022/01/13 18:01:41;;;;;;;204.55;50.50;;;;;;;0.14;94.72;103787.47;10508696;28;20484;-78
2022/01/13 18:06:42;;;;;;;249.57;56.70;;;;;;;0.16;94.90;103796.34;10491315;28;20021;-78
2022/01/13 18:11:43;;;;;;;132.32;43.67;;;;;;;0.11;95.06;103802.53;10490736;28;20064;-77
2022/01/13 18:16:46;;;;;;;121.05;41.20;;;;;;;0.11;95.08;103805.09;10494347;28;20033;-78
2022/01/13 18:21:46;;;;;;;141.45;45.65;;;;;;;0.13;95.26;103814.91;10470535;28;20392;-79
2022/01/13 18:26:47;;;;;;;120.28;39.13;;;;;;;0.07;95.35;103815.69;10480454;28;20071;-77
2022/01/13 18:31:48;;;;;;;99.60;40.67;;;;;;;0.04;94.96;103813.66;10483600;28;20462;-78
2022/01/13 18:36:49;;;;;;;123.85;45.05;;;;;;;0.07;94.87;103814.06;10482881;28;20052;-78
2022/01/13 18:41:50;;;;;;;166.57;47.03;;;;;;;0.08;95.19;103813.34;10532627;28;20036;-78
2022/01/13 18:46:52;;;;;;;170.47;50.13;;;;;;;0.10;94.95;103810.97;10499233;28;20028;-78
2022/01/13 18:51:53;;;;;;;128.68;43.70;;;;;;;0.06;95.10;103800.97;10498709;28;20033;-77
2022/01/13 18:56:53;;;;;;;133.30;46.63;;;;;;;0.08;95.10;103800.47;10497853;28;20514;-79
2022/01/13 19:01:54;;;;;;;141.45;54.08;;;;;;;0.09;95.00;103794.59;10465295;28;20063;-77
2022/01/13 19:06:54;;;;;;;145.68;48.67;;;;;;;0.07;95.42;103788.31;10499616;28;20459;-79
2022/01/13 19:11:55;;;;;;;163.10;52.55;;;;;;;0.14;94.96;103783.28;10500065;28;20067;-79
2022/01/13 19:17:04;;;;;;;86.57;37.90;;;;;;;0.09;95.13;103776.56;10497011;28;20037;-79
2022/01/13 19:22:04;;;;;;;108.97;38.90;;;;;;;0.02;95.41;103775.50;10498552;28;20035;-79
2022/01/13 19:27:05;;;;;;;155.77;45.03;;;;;;;-0.03;95.18;103767.16;10487743;28;20072;-78
2022/01/13 19:32:06;;;;;;;122.20;42.78;;;;;;;-0.06;95.72;103762.50;10498407;28;20034;-78
2022/01/13 19:37:06;;;;;;;165.52;43.50;;;;;;;-0.02;95.60;103757.06;10457163;28;20144;-78
2022/01/13 19:42:07;;;;;;;203.63;50.63;;;;;;;-0.07;95.53;103750.34;10488886;28;20044;-77
2022/01/13 19:47:07;;;;;;;139.70;40.13;;;;;;;-0.08;94.99;103753.66;10500270;28;20036;-77
2022/01/13 19:52:08;;;;;;;79.63;35.67;;;;;;;-0.06;95.45;103759.03;10496793;28;20060;-77
2022/01/13 19:57:08;;;;;;;87.90;36.63;;;;;;;-0.08;95.17;103747.59;10495758;28;20391;-78
2022/01/13 20:02:11;;;;;;;188.55;51.28;;;;;;;-0.14;95.51;103749.31;10493690;28;20052;-77
2022/01/13 20:07:12;;;;;;;104.13;40.67;;;;;;;-0.16;94.97;103747.47;10497978;28;20025;-77
2022/01/13 20:12:15;;;;;;;87.13;43.88;;;;;;;-0.16;94.98;103756.81;10512530;28;20131;-78
2022/01/13 20:17:16;;;;;;;241.50;62.90;;;;;;;-0.17;95.14;103762.69;10496528;28;20039;-78
2022/01/13 20:22:16;;;;;;;194.30;48.30;;;;;;;-0.21;95.55;103758.78;10479772;28;20031;-77
2022/01/13 20:27:17;;;;;;;202.32;55.45;;;;;;;-0.20;95.40;103765.78;10495075;28;20064;-78
2022/01/13 20:32:17;;;;;;;155.68;49.65;;;;;;;-0.20;95.02;103760.63;10495162;28;20129;-78
2022/01/13 20:37:18;;;;;;;129.57;44.22;;;;;;;-0.25;95.14;103758.13;10497362;28;20053;-78
2022/01/13 20:42:18;;;;;;;178.98;42.85;;;;;;;-0.21;95.02;103756.19;10495389;28;20060;-77
2022/01/13 20:47:19;;;;;;;155.63;45.35;;;;;;;-0.25;94.97;103752.97;10479029;28;20033;-77
2022/01/13 20:52:19;;;;;;;98.60;39.25;;;;;;;-0.27;95.53;103759.56;10491712;28;20552;-77
2022/01/13 20:57:20;;;;;;;206.93;51.90;;;;;;;-0.27;94.90;103754.41;10496252;28;20063;-77
2022/01/13 21:02:21;;;;;;;97.93;36.63;;;;;;;-0.33;95.54;103751.94;10477319;28;20494;-78
2022/01/13 21:07:21;;;;;;;187.90;44.78;;;;;;;-0.32;95.16;103752.13;10494263;28;20039;-78
2022/01/13 21:12:22;;;;;;;134.48;42.58;;;;;;;-0.35;95.44;103748.22;10478210;28;20028;-78
2022/01/13 21:17:23;;;;;;;111.28;39.63;;;;;;;-0.24;94.93;103744.53;10477807;28;20047;-78
2022/01/13 21:22:23;;;;;;;141.98;50.00;;;;;;;-0.33;95.58;103745.13;10493880;28;20078;-78
2022/01/13 21:27:24;;;;;;;178.95;47.90;;;;;;;-0.33;95.48;103742.56;10495371;28;20173;-78
2022/01/13 21:32:25;;;;;;;138.30;48.70;;;;;;;-0.35;95.53;103749.13;10495592;28;20060;-78
2022/01/13 21:37:26;;;;;;;119.30;45.25;;;;;;;-0.37;95.32;103731.63;10493790;28;20052;-78
2022/01/13 21:42:26;;;;;;;131.43;44.55;;;;;;;-0.44;95.31;103737.56;10495007;28;20087;-78
2022/01/13 21:47:27;;;;;;;158.05;42.05;;;;;;;-0.41;95.84;103737.06;10497225;28;20101;-78
2022/01/13 21:52:27;;;;;;;127.88;41.35;;;;;;;-0.46;95.68;103739.00;10493164;28;20064;-78
2022/01/13 21:57:28;;;;;;;159.80;41.05;;;;;;;-0.51;95.29;103733.22;10495202;28;20056;-78
2022/01/13 22:02:29;;;;;;;121.25;39.70;;;;;;;-0.52;95.53;103733.94;10485058;28;20044;-78
2022/01/13 22:07:31;;;;;;;121.50;36.05;;;;;;;-0.48;95.63;103735.28;10485588;28;20119;-78
2022/01/13 22:12:31;;;;;;;92.15;32.22;;;;;;;-0.49;95.49;103738.56;10483747;28;20032;-78
2022/01/13 22:17:32;;;;;;;104.68;35.05;;;;;;;-0.45;95.38;103728.94;10501210;28;20472;-78
2022/01/13 22:22:38;;;;;;;119.25;34.03;;;;;;;-0.43;95.62;103726.56;10501311;28;20090;-78
2022/01/13 22:27:39;;;;;;;69.40;28.77;;;;;;;-0.39;95.46;103722.78;10468436;28;20025;-78
2022/01/13 22:32:39;;;;;;;141.00;38.08;;;;;;;-0.39;95.30;103722.78;10500509;28;20024;-78
2022/01/13 22:37:40;;;;;;;98.53;35.58;;;;;;;-0.34;95.20;103720.09;10467289;28;20861;-78
2022/01/13 22:42:40;;;;;;;93.35;31.95;;;;;;;-0.31;95.23;103727.34;10484603;28;20031;-78
2022/01/13 22:47:42;;;;;;;101.57;33.95;;;;;;;-0.32;95.33;103722.91;10500223;28;20115;-78
2022/01/13 22:52:42;;;;;;;82.25;29.20;;;;;;;-0.29;95.47;103710.47;10499409;28;20039;-78
2022/01/13 22:57:43;;;;;;;73.22;27.40;;;;;;;-0.31;95.74;103714.47;10500364;28;20399;-78
2022/01/13 23:02:43;;;;;;;55.20;23.67;;;;;;;-0.35;95.17;103700.22;10498795;28;20601;-78
2022/01/13 23:07:44;;;;;;;71.22;29.77;;;;;;;-0.39;95.18;103697.03;10482286;28;20048;-78
2022/01/13 23:12:45;;;;;;;129.35;33.28;;;;;;;-0.36;95.70;103690.66;10482031;28;20527;-78
2022/01/13 23:23:06;;;;;;;104.63;30.40;;;;;;;-0.32;95.35;103682.63;10498579;28;20021;-78
2022/01/13 23:28:06;;;;;;;72.78;27.13;;;;;;;-0.30;95.23;103680.28;10466760;28;20178;-78
2022/01/13 23:33:07;;;;;;;71.82;31.27;;;;;;;-0.26;95.92;103674.84;10499592;28;20115;-78